LOP weather

Lombok International Airport
Mataram, Nusa Tenggara Barat, Indonesia

Public forecast

Using degrees Celsius for public forecast. Weather courtesy of forecast.io.

METAR (pilot weather report)

Retrieved 2019/03/27 00:30 UTC (28 minutes ago):

WADL 270030Z 00000KT 7000 FEW016 27/26 Q1014 NOSIG

TAF (pilot weather forecast)

Forecast is more than 12 hours old.

Retrieved 2019/03/24 18:36 UTC (2 days ago):

TAF TAF WADL 241700Z 2418/2518 00000KT 6000 BKN016 BECMG 2423/2501 30015KT SCT016